createdAt,value
2023-05-17T00:00:55.586Z,97061.72
2023-05-17T00:03:23.884Z,97053.97
2023-05-17T00:05:52.130Z,97065.69
2023-05-17T00:08:20.357Z,97052.63
2023-05-17T00:10:48.566Z,97061.94
2023-05-17T00:13:18.427Z,97054.03
2023-05-17T00:15:46.619Z,97064.38
2023-05-17T00:18:14.973Z,97062.31
2023-05-17T00:20:43.292Z,97060.38
2023-05-17T00:23:11.480Z,97065.91
2023-05-17T00:25:39.698Z,97071.09
2023-05-17T00:28:07.873Z,97072.59
2023-05-17T00:30:37.402Z,97070.09
2023-05-17T00:33:05.709Z,97068.88
2023-05-17T00:35:33.968Z,97078.75
2023-05-17T00:38:02.244Z,97072.69
2023-05-17T00:40:31.960Z,97073.03
2023-05-17T00:43:00.157Z,97083.25
2023-05-17T00:45:28.649Z,97075.41
2023-05-17T00:47:58.743Z,97070.63
2023-05-17T00:50:27.399Z,97071.53
2023-05-17T00:52:55.728Z,97077.41
2023-05-17T00:55:23.937Z,97069.31
2023-05-17T00:57:52.992Z,97070.50
2023-05-17T01:00:21.627Z,97071.69
2023-05-17T01:03:10.035Z,97076.44
2023-05-17T01:05:56.981Z,97069.56
2023-05-17T01:08:43.775Z,97074.31
2023-05-17T01:11:40.699Z,97076.94
2023-05-17T01:14:39.911Z,97078.66
2023-05-17T01:17:31.954Z,97076.94
2023-05-17T01:20:24.759Z,97073.81
2023-05-17T01:23:22.205Z,97079.13
2023-05-17T01:26:13.026Z,97083.34
2023-05-17T01:29:01.615Z,97085.50
2023-05-17T01:31:50.075Z,97091.22
2023-05-17T01:34:36.849Z,97085.06
2023-05-17T01:37:23.663Z,97091.00
2023-05-17T01:40:10.763Z,97093.94
2023-05-17T01:43:01.521Z,97082.69
2023-05-17T01:45:57.602Z,97083.44
2023-05-17T01:48:50.317Z,97087.66
2023-05-17T01:51:44.287Z,97097.81
2023-05-17T01:54:36.413Z,97099.16
2023-05-17T01:57:26.639Z,97103.41
2023-05-17T02:00:15.039Z,97103.84
2023-05-17T02:03:04.011Z,97109.28
2023-05-17T02:05:50.832Z,97109.63
2023-05-17T02:08:37.724Z,97111.41
2023-05-17T02:11:24.299Z,97111.88
2023-05-17T02:14:12.459Z,97112.41
2023-05-17T02:16:59.717Z,97111.50
2023-05-17T02:19:47.882Z,97115.69
2023-05-17T02:22:34.555Z,97119.63
2023-05-17T02:25:21.288Z,97113.16
2023-05-17T02:28:08.093Z,97125.38
2023-05-17T02:30:56.569Z,97117.00
2023-05-17T02:33:43.691Z,97121.25
2023-05-17T02:36:32.536Z,97134.00
2023-05-17T02:39:19.181Z,97122.63
2023-05-17T02:42:06.141Z,97121.63
2023-05-17T02:44:53.099Z,97126.97
2023-05-17T02:47:40.102Z,97140.44
2023-05-17T02:50:26.731Z,97142.16
2023-05-17T02:53:14.919Z,97130.94
2023-05-17T02:56:01.704Z,97139.75
2023-05-17T02:58:48.432Z,97139.53
2023-05-17T03:01:36.230Z,97142.38
2023-05-17T03:04:23.554Z,97138.34
2023-05-17T03:07:10.466Z,97144.25
2023-05-17T03:09:59.282Z,97153.34
2023-05-17T03:12:49.984Z,97150.19
2023-05-17T03:15:39.214Z,97154.63
2023-05-17T03:18:26.013Z,97162.34
2023-05-17T03:21:13.052Z,97169.56
2023-05-17T03:23:59.772Z,97178.16
2023-05-17T03:26:47.884Z,97174.75
2023-05-17T03:29:34.660Z,97171.63
2023-05-17T03:32:21.402Z,97186.09
2023-05-17T03:35:09.040Z,97190.13
2023-05-17T03:37:56.678Z,97194.13
2023-05-17T03:40:44.179Z,97202.75
2023-05-17T03:43:32.400Z,97197.94
2023-05-17T03:46:20.214Z,97199.59
2023-05-17T03:49:08.034Z,97207.13
2023-05-17T03:51:55.340Z,97207.06
2023-05-17T03:54:42.041Z,97220.13
2023-05-17T03:57:28.861Z,97223.09
2023-05-17T04:00:21.852Z,97233.31
2023-05-17T04:03:09.274Z,97235.91
2023-05-17T04:05:56.278Z,97237.06
2023-05-17T04:08:43.135Z,97241.88
2023-05-17T04:11:29.896Z,97242.88
2023-05-17T04:14:16.563Z,97252.09
2023-05-17T04:17:04.810Z,97256.56
2023-05-17T04:19:51.737Z,97254.66
2023-05-17T04:22:39.171Z,97250.94
2023-05-17T04:25:25.989Z,97263.03
2023-05-17T04:28:12.731Z,97263.88
2023-05-17T04:30:59.395Z,97272.00
2023-05-17T04:33:48.106Z,97268.72
2023-05-17T04:36:35.429Z,97271.47
2023-05-17T04:39:23.230Z,97275.75
2023-05-17T04:42:10.205Z,97277.06
2023-05-17T04:45:01.295Z,97278.13
2023-05-17T04:47:52.851Z,97285.97
2023-05-17T04:50:41.951Z,97270.41
2023-05-17T04:53:30.732Z,97278.97
2023-05-17T04:56:18.313Z,97284.81
2023-05-17T04:59:05.495Z,97289.13
2023-05-17T05:01:52.304Z,97283.78
2023-05-17T05:04:39.327Z,97286.22
2023-05-17T05:07:27.855Z,97287.25
2023-05-17T05:10:15.086Z,97286.78
2023-05-17T05:13:02.449Z,97299.28
2023-05-17T05:15:49.377Z,97307.88
2023-05-17T05:18:36.584Z,97320.34
2023-05-17T05:21:23.984Z,97313.16
2023-05-17T05:24:12.126Z,97312.09
2023-05-17T05:26:58.939Z,97313.16
2023-05-17T05:29:46.793Z,97312.13
2023-05-17T05:32:33.950Z,97317.63
2023-05-17T05:35:20.971Z,97309.09
2023-05-17T05:38:08.781Z,97322.28
2023-05-17T05:40:57.563Z,97321.31
2023-05-17T05:43:44.340Z,97331.50
2023-05-17T05:46:31.058Z,97329.25
2023-05-17T05:49:18.852Z,97330.31
2023-05-17T05:52:05.949Z,97334.53
2023-05-17T05:54:52.964Z,97332.97
2023-05-17T05:57:40.984Z,97333.44
2023-05-17T06:00:28.805Z,97335.56
2023-05-17T06:03:16.062Z,97332.56
2023-05-17T06:06:02.662Z,97336.03
2023-05-17T06:08:49.300Z,97333.41
2023-05-17T06:11:36.085Z,97338.47
2023-05-17T06:14:24.085Z,97340.88
2023-05-17T06:17:10.794Z,97345.97
2023-05-17T06:19:57.715Z,97346.75
2023-05-17T06:22:44.637Z,97359.00
2023-05-17T06:25:31.100Z,97356.84
2023-05-17T06:28:18.623Z,97351.06
2023-05-17T06:31:06.793Z,97358.50
2023-05-17T06:33:53.287Z,97361.19
2023-05-17T06:36:40.733Z,97364.44
2023-05-17T06:39:27.975Z,97369.22
2023-05-17T06:42:14.766Z,97366.00
2023-05-17T06:45:01.954Z,97375.63
2023-05-17T06:47:50.467Z,97367.59
2023-05-17T06:50:37.174Z,97365.09
2023-05-17T06:53:23.871Z,97377.13
2023-05-17T06:56:11.030Z,97382.97
2023-05-17T06:58:57.918Z,97381.28
2023-05-17T07:01:44.620Z,97384.72
2023-05-17T07:04:32.787Z,97379.84
2023-05-17T07:07:19.542Z,97391.94
2023-05-17T07:10:07.462Z,97392.88
2023-05-17T07:12:54.565Z,97392.81
2023-05-17T07:15:41.289Z,97395.44
2023-05-17T07:18:28.130Z,97392.75
2023-05-17T07:21:16.118Z,97396.44
2023-05-17T07:24:03.218Z,97400.97
2023-05-17T07:26:52.200Z,97389.81
2023-05-17T07:29:39.369Z,97392.94
2023-05-17T07:32:26.016Z,97393.97
2023-05-17T07:35:12.930Z,97392.13
2023-05-17T07:38:00.950Z,97394.88
2023-05-17T07:40:47.694Z,97394.66
2023-05-17T07:43:34.536Z,97407.81
2023-05-17T07:46:21.556Z,97397.41
2023-05-17T07:49:08.500Z,97403.59
2023-05-17T07:51:55.701Z,97394.31
2023-05-17T07:54:43.714Z,97397.16
2023-05-17T07:57:30.408Z,97389.59
2023-05-17T08:00:19.363Z,97390.06
2023-05-17T08:03:06.300Z,97393.44
2023-05-17T08:05:53.234Z,97396.59
2023-05-17T08:08:39.996Z,97389.78
2023-05-17T08:11:28.501Z,97393.34
2023-05-17T08:14:15.669Z,97389.50
2023-05-17T08:17:02.333Z,97390.66
2023-05-17T08:19:50.348Z,97401.88
2023-05-17T08:22:36.917Z,97408.63
2023-05-17T08:25:23.671Z,97397.84
2023-05-17T08:28:12.532Z,97401.69
2023-05-17T08:30:59.382Z,97401.59
2023-05-17T08:33:46.037Z,97408.69
2023-05-17T08:36:32.866Z,97402.38
2023-05-17T08:39:20.521Z,97410.94
2023-05-17T08:42:08.994Z,97409.50
2023-05-17T08:44:57.101Z,97413.06
2023-05-17T08:47:44.382Z,97417.78
2023-05-17T08:50:32.387Z,97412.88
2023-05-17T08:53:19.191Z,97416.50
2023-05-17T08:56:07.134Z,97419.47
2023-05-17T08:58:58.125Z,97429.78
2023-05-17T09:01:48.252Z,97426.09
2023-05-17T09:04:34.827Z,97429.16
2023-05-17T09:07:21.787Z,97426.50
2023-05-17T09:10:09.814Z,97433.31
2023-05-17T09:12:56.420Z,97426.50
2023-05-17T09:15:44.048Z,97425.41
2023-05-17T09:18:33.399Z,97426.81
2023-05-17T09:21:20.031Z,97436.00
2023-05-17T09:24:08.625Z,97439.84
2023-05-17T09:26:55.588Z,97434.66
2023-05-17T09:29:42.276Z,97433.28
2023-05-17T09:32:28.905Z,97439.00
2023-05-17T09:35:17.001Z,97439.75
2023-05-17T09:38:08.579Z,97435.94
2023-05-17T09:40:55.388Z,97443.34
2023-05-17T09:43:41.913Z,97434.00
2023-05-17T09:46:28.793Z,97456.75
2023-05-17T09:49:16.471Z,97448.59
2023-05-17T09:52:09.105Z,97443.69
2023-05-17T09:54:57.513Z,97439.28
2023-05-17T09:57:44.249Z,97443.19
2023-05-17T10:00:32.389Z,97434.59
2023-05-17T10:03:19.229Z,97447.97
2023-05-17T10:06:09.889Z,97441.97
2023-05-17T10:09:00.038Z,97445.81
2023-05-17T10:11:47.888Z,97436.78
2023-05-17T10:14:36.637Z,97430.41
2023-05-17T10:17:23.812Z,97431.19
2023-05-17T10:20:11.875Z,97432.41
2023-05-17T10:22:59.395Z,97437.91
2023-05-17T10:25:47.579Z,97436.63
2023-05-17T10:28:34.432Z,97424.63
2023-05-17T10:31:21.754Z,97433.41
2023-05-17T10:34:09.936Z,97428.81
2023-05-17T10:36:57.557Z,97423.13
2023-05-17T10:39:46.856Z,97432.97
2023-05-17T10:42:35.219Z,97435.50
2023-05-17T10:45:22.905Z,97430.91
2023-05-17T10:48:10.348Z,97422.44
2023-05-17T10:51:01.872Z,97427.31
2023-05-17T10:54:11.647Z,97425.97
2023-05-17T10:57:06.422Z,97422.22
2023-05-17T10:59:59.743Z,97414.53
2023-05-17T11:02:48.702Z,97420.06
2023-05-17T11:05:36.351Z,97418.66
2023-05-17T11:08:23.242Z,97419.84
2023-05-17T11:11:11.570Z,97419.50
2023-05-17T11:13:59.117Z,97420.19
2023-05-17T11:16:47.214Z,97421.00
2023-05-17T11:19:34.029Z,97420.94
2023-05-17T11:22:24.111Z,97410.50
2023-05-17T11:25:13.252Z,97413.00
2023-05-17T11:28:00.243Z,97417.34
2023-05-17T11:30:51.655Z,97415.72
2023-05-17T11:33:43.637Z,97414.09
2023-05-17T11:36:30.714Z,97411.88
2023-05-17T11:39:18.462Z,97414.78
2023-05-17T11:42:05.684Z,97412.91
2023-05-17T11:44:52.734Z,97414.44
2023-05-17T11:47:42.996Z,97413.66
2023-05-17T11:50:31.315Z,97412.81
2023-05-17T11:53:18.233Z,97417.25
2023-05-17T11:56:05.397Z,97415.63
2023-05-17T11:58:52.862Z,97413.84
2023-05-17T12:01:46.828Z,97412.69
2023-05-17T12:04:37.359Z,97417.03
2023-05-17T12:07:26.036Z,97419.19
2023-05-17T12:10:14.468Z,97414.94
2023-05-17T12:13:02.039Z,97425.47
2023-05-17T12:15:52.975Z,97419.88
2023-05-17T12:18:40.513Z,97420.44
2023-05-17T12:21:27.801Z,97418.00
2023-05-17T12:24:16.304Z,97425.47
2023-05-17T12:27:03.031Z,97419.47
2023-05-17T12:29:49.708Z,97424.13
2023-05-17T12:32:36.343Z,97426.84
2023-05-17T12:35:23.102Z,97420.63
2023-05-17T12:38:11.351Z,97426.44
2023-05-17T12:41:00.537Z,97421.91
2023-05-17T12:43:47.555Z,97418.72
2023-05-17T12:46:34.663Z,97426.28
2023-05-17T12:49:22.734Z,97428.53
2023-05-17T12:52:11.568Z,97431.25
2023-05-17T12:55:00.065Z,97428.88
2023-05-17T12:57:51.739Z,97415.38
2023-05-17T13:00:38.453Z,97424.00
2023-05-17T13:03:25.349Z,97417.56
2023-05-17T13:06:12.015Z,97420.06
2023-05-17T13:09:02.085Z,97416.38
2023-05-17T13:11:52.379Z,97416.72
2023-05-17T13:14:45.768Z,97411.47
2023-05-17T13:17:36.721Z,97408.03
2023-05-17T13:20:23.500Z,97417.50
2023-05-17T13:23:10.731Z,97415.25
2023-05-17T13:25:57.511Z,97403.75
2023-05-17T13:28:44.464Z,97408.25
2023-05-17T13:31:13.957Z,97399.81
2023-05-17T13:33:42.378Z,97412.97
2023-05-17T13:36:10.638Z,97412.19
2023-05-17T13:38:38.697Z,97411.72
2023-05-17T13:41:09.401Z,97416.59
2023-05-17T13:43:37.488Z,97413.78
2023-05-17T13:46:05.562Z,97404.44
2023-05-17T13:48:35.157Z,97407.84
2023-05-17T13:51:03.316Z,97400.44
2023-05-17T13:53:31.355Z,97409.09
2023-05-17T13:55:59.491Z,97405.13
2023-05-17T13:58:27.610Z,97414.03
2023-05-17T14:00:55.754Z,97411.03
2023-05-17T14:03:23.917Z,97404.25
2023-05-17T14:05:54.332Z,97404.63
2023-05-17T14:08:22.437Z,97403.44
2023-05-17T14:10:50.477Z,97404.84
2023-05-17T14:13:18.795Z,97406.69
2023-05-17T14:15:47.012Z,97402.66
2023-05-17T14:18:15.463Z,97396.00
2023-05-17T14:20:43.778Z,97403.03
2023-05-17T14:23:13.469Z,97401.63
2023-05-17T14:25:43.745Z,97410.38
2023-05-17T14:28:13.632Z,97403.53
2023-05-17T14:30:42.239Z,97411.34
2023-05-17T14:33:10.600Z,97410.53
2023-05-17T14:35:39.099Z,97411.28
2023-05-17T14:38:07.320Z,97410.19
2023-05-17T14:40:36.868Z,97423.47
2023-05-17T14:43:05.116Z,97419.78
2023-05-17T14:45:33.299Z,97428.22
2023-05-17T14:48:01.690Z,97429.84
2023-05-17T14:50:32.853Z,97430.47
2023-05-17T14:53:01.171Z,97434.91
2023-05-17T14:55:30.106Z,97426.00
2023-05-17T14:58:01.800Z,97425.44
2023-05-17T15:00:30.172Z,97426.75
2023-05-17T15:02:58.513Z,97429.97
2023-05-17T15:05:26.814Z,97422.47
2023-05-17T15:07:55.051Z,97422.41
2023-05-17T15:10:23.919Z,97420.75
2023-05-17T15:12:52.381Z,97433.84
2023-05-17T15:15:22.251Z,97423.31
2023-05-17T15:17:50.565Z,97424.44
2023-05-17T15:20:20.150Z,97431.47
2023-05-17T15:22:48.640Z,97429.13
2023-05-17T15:25:17.289Z,97427.63
2023-05-17T15:27:45.603Z,97432.72
2023-05-17T15:30:15.007Z,97427.50
2023-05-17T15:32:44.630Z,97424.66
2023-05-17T15:35:12.927Z,97435.41
2023-05-17T15:37:41.320Z,97433.19
2023-05-17T15:40:11.002Z,97429.44
2023-05-17T15:42:39.197Z,97432.41
2023-05-17T15:45:08.509Z,97431.75
2023-05-17T15:47:43.105Z,97438.19
2023-05-17T15:50:13.188Z,97436.88
2023-05-17T15:52:41.701Z,97444.69
2023-05-17T15:55:10.949Z,97447.31
2023-05-17T15:57:39.372Z,97446.34
2023-05-17T16:00:09.115Z,97449.72
2023-05-17T16:02:37.381Z,97448.56
2023-05-17T16:05:06.499Z,97447.84
2023-05-17T16:07:36.071Z,97444.06
2023-05-17T16:10:04.377Z,97448.28
2023-05-17T16:12:32.645Z,97446.88
2023-05-17T16:15:00.831Z,97448.91
2023-05-17T16:17:29.086Z,97453.03
2023-05-17T16:19:57.358Z,97451.47
2023-05-17T16:22:25.683Z,97462.00
2023-05-17T16:24:55.475Z,97459.44
2023-05-17T16:27:23.740Z,97451.00
2023-05-17T16:29:51.965Z,97461.41
2023-05-17T16:32:20.315Z,97454.84
2023-05-17T16:34:48.593Z,97457.91
2023-05-17T16:37:16.877Z,97464.88
2023-05-17T16:39:45.070Z,97467.47
2023-05-17T16:42:15.203Z,97471.50
2023-05-17T16:44:43.424Z,97472.78
2023-05-17T16:47:11.911Z,97479.69
2023-05-17T16:49:41.191Z,97471.47
2023-05-17T16:52:09.787Z,97471.25
2023-05-17T16:54:38.688Z,97472.34
2023-05-17T16:57:08.536Z,97480.16
2023-05-17T16:59:38.506Z,97477.75
2023-05-17T17:02:07.596Z,97483.31
2023-05-17T17:04:36.996Z,97481.13
2023-05-17T17:07:05.699Z,97481.19
2023-05-17T17:09:33.928Z,97483.81
2023-05-17T17:12:09.585Z,97479.56
2023-05-17T17:14:46.944Z,97482.53
2023-05-17T17:17:15.328Z,97486.34
2023-05-17T17:19:43.612Z,97489.19
2023-05-17T17:22:12.099Z,97489.75
2023-05-17T17:24:40.328Z,97495.25
2023-05-17T17:27:08.626Z,97499.88
2023-05-17T17:29:37.475Z,97497.88
2023-05-17T17:32:08.534Z,97500.94
2023-05-17T17:34:36.768Z,97498.22
2023-05-17T17:37:05.026Z,97509.47
2023-05-17T17:39:33.271Z,97505.00
2023-05-17T17:42:01.583Z,97511.66
2023-05-17T17:44:29.774Z,97505.53
2023-05-17T17:46:58.065Z,97516.22
2023-05-17T17:49:27.706Z,97514.38
2023-05-17T17:51:55.895Z,97515.38
2023-05-17T17:54:24.103Z,97515.59
2023-05-17T17:56:52.285Z,97509.78
2023-05-17T17:59:20.441Z,97520.16
2023-05-17T18:01:48.772Z,97511.13
2023-05-17T18:04:17.135Z,97515.19
2023-05-17T18:06:46.802Z,97526.09
2023-05-17T18:09:15.126Z,97527.72
2023-05-17T18:11:43.418Z,97528.91
2023-05-17T18:14:12.184Z,97528.91
2023-05-17T18:16:40.665Z,97538.78
2023-05-17T18:19:08.995Z,97540.31
2023-05-17T18:21:37.312Z,97543.06
2023-05-17T18:24:07.623Z,97541.00
2023-05-17T18:26:36.237Z,97542.25
2023-05-17T18:29:05.909Z,97541.00
2023-05-17T18:31:34.188Z,97544.16
2023-05-17T18:34:02.457Z,97547.06
2023-05-17T18:36:30.985Z,97543.25
2023-05-17T18:39:00.890Z,97545.56
2023-05-17T18:41:30.461Z,97548.88
2023-05-17T18:44:01.821Z,97550.47
2023-05-17T18:46:30.581Z,97546.50
2023-05-17T18:48:58.813Z,97557.66
2023-05-17T18:51:27.953Z,97561.53
2023-05-17T18:53:56.182Z,97565.16
2023-05-17T18:56:25.211Z,97564.06
2023-05-17T18:58:55.474Z,97562.44
2023-05-17T19:01:23.892Z,97565.75
2023-05-17T19:03:55.190Z,97568.44
2023-05-17T19:06:24.077Z,97575.03
2023-05-17T19:08:52.513Z,97576.13
2023-05-17T19:11:21.054Z,97569.41
2023-05-17T19:13:49.848Z,97556.81
2023-05-17T19:16:19.438Z,97565.38
2023-05-17T19:18:47.698Z,97563.25
2023-05-17T19:21:15.989Z,97568.00
2023-05-17T19:23:44.707Z,97561.16
2023-05-17T19:26:12.923Z,97569.47
2023-05-17T19:28:41.401Z,97565.66
2023-05-17T19:31:09.646Z,97574.88
2023-05-17T19:33:39.191Z,97569.25
2023-05-17T19:36:07.561Z,97579.81
2023-05-17T19:38:35.878Z,97579.09
2023-05-17T19:41:04.095Z,97580.19
2023-05-17T19:43:35.818Z,97589.34
2023-05-17T19:46:04.424Z,97580.75
2023-05-17T19:48:32.681Z,97589.50
2023-05-17T19:51:02.192Z,97586.28
2023-05-17T19:53:40.263Z,97597.41
2023-05-17T19:56:12.325Z,97587.72
2023-05-17T19:58:40.533Z,97599.16
2023-05-17T20:01:08.725Z,97596.75
2023-05-17T20:03:37.111Z,97591.50
2023-05-17T20:06:06.907Z,97593.88
2023-05-17T20:08:35.983Z,97591.78
2023-05-17T20:11:04.209Z,97598.13
2023-05-17T20:13:34.284Z,97591.72
2023-05-17T20:16:02.632Z,97595.16
2023-05-17T20:18:31.722Z,97593.03
2023-05-17T20:20:59.900Z,97595.75
2023-05-17T20:23:29.523Z,97597.69
2023-05-17T20:25:57.897Z,97596.88
2023-05-17T20:28:26.229Z,97595.31
2023-05-17T20:30:55.703Z,97600.72
2023-05-17T20:33:26.650Z,97597.03
2023-05-17T20:35:55.218Z,97596.00
2023-05-17T20:38:23.397Z,97594.72
2023-05-17T20:40:53.004Z,97593.97
2023-05-17T20:43:21.157Z,97593.97
2023-05-17T20:45:49.912Z,97595.09
2023-05-17T20:48:18.503Z,97597.25
2023-05-17T20:50:47.324Z,97600.00
2023-05-17T20:53:15.472Z,97598.97
2023-05-17T20:55:44.475Z,97602.19
2023-05-17T20:58:14.025Z,97598.47
2023-05-17T21:00:42.806Z,97601.75
2023-05-17T21:03:11.406Z,97595.06
2023-05-17T21:05:39.708Z,97600.25
2023-05-17T21:08:08.291Z,97588.72
2023-05-17T21:10:40.569Z,97598.94
2023-05-17T21:13:09.591Z,97593.06
2023-05-17T21:15:39.273Z,97598.72
2023-05-17T21:18:07.699Z,97600.38
2023-05-17T21:20:36.145Z,97592.56
2023-05-17T21:23:04.457Z,97608.50
2023-05-17T21:25:32.902Z,97598.28
2023-05-17T21:28:01.180Z,97598.28
2023-05-17T21:30:29.696Z,97597.00
2023-05-17T21:32:59.561Z,97594.03
2023-05-17T21:35:27.867Z,97599.41
2023-05-17T21:37:56.145Z,97593.53
2023-05-17T21:40:24.362Z,97598.69
2023-05-17T21:42:52.522Z,97601.09
2023-05-17T21:45:21.027Z,97602.47
2023-05-17T21:47:49.241Z,97602.75
2023-05-17T21:50:18.953Z,97599.53
2023-05-17T21:52:47.160Z,97600.13
2023-05-17T21:55:15.373Z,97601.25
2023-05-17T21:57:43.582Z,97601.00
2023-05-17T22:00:15.266Z,97595.41
2023-05-17T22:02:44.618Z,97603.44
2023-05-17T22:05:13.294Z,97590.84
2023-05-17T22:07:43.987Z,97593.81
2023-05-17T22:10:12.678Z,97592.25
2023-05-17T22:12:40.949Z,97586.88
2023-05-17T22:15:10.972Z,97583.69
2023-05-17T22:17:48.543Z,97591.22
2023-05-17T22:20:23.704Z,97588.81
2023-05-17T22:22:53.548Z,97579.97
2023-05-17T22:25:21.929Z,97579.97
2023-05-17T22:27:50.124Z,97582.13
2023-05-17T22:30:18.451Z,97586.66
2023-05-17T22:32:46.794Z,97581.06
2023-05-17T22:35:15.112Z,97588.84
2023-05-17T22:37:43.349Z,97579.47
2023-05-17T22:40:13.799Z,97585.63
2023-05-17T22:42:43.207Z,97578.91
2023-05-17T22:45:14.518Z,97582.66
2023-05-17T22:47:43.619Z,97578.41
2023-05-17T22:50:14.471Z,97582.16
2023-05-17T22:52:42.777Z,97579.47
2023-05-17T22:55:12.511Z,97581.63
2023-05-17T22:57:40.996Z,97577.88
2023-05-17T23:00:11.422Z,97582.69
2023-05-17T23:02:39.895Z,97578.16
2023-05-17T23:05:08.728Z,97573.59
2023-05-17T23:07:38.453Z,97569.06
2023-05-17T23:10:08.334Z,97568.53
2023-05-17T23:12:38.674Z,97565.06
2023-05-17T23:15:08.294Z,97560.22
2023-05-17T23:17:39.017Z,97558.63
2023-05-17T23:20:09.968Z,97559.41
2023-05-17T23:22:38.987Z,97559.69
2023-05-17T23:25:07.920Z,97559.19
2023-05-17T23:27:37.565Z,97562.91
2023-05-17T23:30:07.390Z,97561.84
2023-05-17T23:32:35.585Z,97553.53
2023-05-17T23:35:04.834Z,97556.22
2023-05-17T23:37:35.040Z,97553.81
2023-05-17T23:40:04.723Z,97548.19
2023-05-17T23:42:33.006Z,97547.94
2023-05-17T23:45:02.913Z,97555.94
2023-05-17T23:47:33.624Z,97550.59
2023-05-17T23:50:02.988Z,97550.59
2023-05-17T23:52:32.574Z,97547.91
2023-05-17T23:55:01.602Z,97550.34
2023-05-17T23:57:30.452Z,97550.06
2023-05-17T23:59:58.675Z,97537.50
